»·PEaware :: N4306H KTOA-KVNY

N4306H :: KTOA-KVNY

FLIGHT INFORMATION

Flight Status: Arrived
Operator: Privately registered:
United States
More flights under this callsign
Pilot: Lauro R. (32390)
Aircraft: MOONEY M-20 201 202 205 220 ATS MSE
(M20P)
More flights by this aircraft type
Origin: KTOA Zamperini
United States
Destination: KVNY Van Nuys
United States
More flights between these airports :: More routes between these airports
Route: LAX170 LIMBO V64 SMO125 SMO SMO317 CANOG
File this flight plan on PilotEdge
Remarks:
Altitude:
(Current/Filed)
4,000ft
Speed:
(Current/Filed)
150kts
Departed: 04-Feb-21 06:02 PM
Arrived: 04-Feb-21 07:09 PM
Distance/Time
Traveled:
26nm/1:07
Distance/Time
To Go:
Arrived

Flight Plot

Page will automatically refresh every two minutes.

Flight plan parsing failed; only flown route is shown


Map Options




Map Legend


Flown Route
Filed Route
Departure Airport
Arrival Airport
Navaid (VOR, NDB)
Fix

Horizontal Profiles

Position Reports

Time Latitude Longitude Heading Altitude Ground
Speed
04-Feb-21 17:42 33.801601 -118.341420 218 104ft 0kts
04-Feb-21 17:43 33.801601 -118.341420 218 104ft 0kts
04-Feb-21 17:44 33.801601 -118.341420 218 104ft 0kts
04-Feb-21 17:45 33.801601 -118.341420 218 104ft 0kts
04-Feb-21 17:46 33.801601 -118.341420 218 104ft 0kts
04-Feb-21 17:47 33.801601 -118.341420 218 104ft 0kts
04-Feb-21 17:48 33.801601 -118.341420 218 104ft 0kts
04-Feb-21 17:49 33.801601 -118.341420 218 104ft 0kts
04-Feb-21 17:50 33.801601 -118.341420 218 104ft 0kts
04-Feb-21 17:51 33.801601 -118.341420 218 104ft 0kts
04-Feb-21 17:52 33.801601 -118.341420 218 104ft 0kts
04-Feb-21 17:53 33.801601 -118.341420 218 104ft 0kts
04-Feb-21 17:54 33.801601 -118.341420 218 104ft 0kts
04-Feb-21 17:55 33.801601 -118.341420 218 104ft 0kts
04-Feb-21 17:56 33.801598 -118.341279 56 104ft 2kts
04-Feb-21 17:57 33.801166 -118.339420 80 102ft 13kts
04-Feb-21 17:58 33.798076 -118.334569 112 104ft 16kts
04-Feb-21 17:59 33.799139 -118.333257 38 99ft 0kts
04-Feb-21 18:00 33.799660 -118.332996 317 98ft 4kts
04-Feb-21 18:02 33.807240 -118.344491 308 197ft 98kts
04-Feb-21 18:03 33.826181 -118.370873 311 1038ft 97kts
04-Feb-21 18:04 33.843798 -118.395551 311 1850ft 96kts
04-Feb-21 18:05 33.857353 -118.424982 255 2672ft 112kts
04-Feb-21 18:06 33.829956 -118.441698 189 3486ft 118kts
04-Feb-21 18:07 33.794279 -118.446593 185 3860ft 149kts
04-Feb-21 18:08 33.758157 -118.434236 98 3850ft 153kts
04-Feb-21 18:09 33.763491 -118.383066 85 3853ft 155kts
04-Feb-21 18:10 33.767115 -118.330435 85 3854ft 163kts
04-Feb-21 18:11 33.771335 -118.275147 85 3853ft 169kts
04-Feb-21 18:12 33.793976 -118.238913 341 3847ft 170kts
04-Feb-21 18:13 33.822872 -118.269715 316 3853ft 171kts
04-Feb-21 18:14 33.854585 -118.300107 320 3853ft 171kts
04-Feb-21 18:15 33.887728 -118.333396 320 3853ft 172kts
04-Feb-21 18:15 33.915503 -118.361277 320 3853ft 172kts
04-Feb-21 18:17 33.954704 -118.400680 320 3853ft 172kts
04-Feb-21 18:18 33.990949 -118.437156 320 3853ft 172kts
04-Feb-21 18:18 34.022830 -118.464493 330 3858ft 171kts
04-Feb-21 18:20 34.075553 -118.498667 332 3847ft 129kts
04-Feb-21 18:20 34.099826 -118.514291 332 3849ft 110kts
04-Feb-21 18:22 34.135850 -118.519671 359 4378ft 119kts
04-Feb-21 18:22 34.162985 -118.523238 345 4853ft 134kts
04-Feb-21 18:23 34.204216 -118.536697 345 4856ft 167kts
04-Feb-21 18:24 34.250611 -118.551832 345 4854ft 177kts
04-Feb-21 18:25 34.298743 -118.567535 345 4853ft 180kts
04-Feb-21 18:26 34.347437 -118.583417 345 4853ft 181kts
04-Feb-21 18:27 34.396116 -118.599289 345 4853ft 181kts
04-Feb-21 18:28 34.444920 -118.615198 345 4853ft 181kts
04-Feb-21 18:29 34.493827 -118.631133 345 4853ft 181kts
04-Feb-21 18:30 34.514730 -118.601209 89 4848ft 125kts
04-Feb-21 18:31 34.512725 -118.563568 139 4852ft 101kts
04-Feb-21 18:32 34.491772 -118.544010 143 4851ft 90kts
04-Feb-21 18:33 34.472261 -118.525977 148 4856ft 89kts
04-Feb-21 18:34 34.447684 -118.514151 171 4687ft 104kts
04-Feb-21 18:35 34.418078 -118.510254 176 3994ft 109kts
04-Feb-21 18:36 34.389987 -118.507202 176 3640ft 82kts
04-Feb-21 18:37 34.369539 -118.506451 179 3254ft 90kts
04-Feb-21 18:38 34.338831 -118.502343 175 2518ft 86kts
04-Feb-21 18:39 34.316489 -118.501489 170 2604ft 78kts
04-Feb-21 18:40 34.294439 -118.498353 177 2487ft 76kts
04-Feb-21 18:41 34.267358 -118.495655 174 2040ft 115kts
04-Feb-21 18:42 34.239174 -118.493104 176 1365ft 93kts
04-Feb-21 18:43 34.214532 -118.490817 177 879ft 98kts
04-Feb-21 18:44 34.191640 -118.485599 158 1691ft 106kts
04-Feb-21 18:45 34.160762 -118.474657 166 2548ft 121kts
04-Feb-21 18:46 34.121604 -118.463573 167 2838ft 149kts
04-Feb-21 18:47 34.084199 -118.455601 179 3641ft 116kts
04-Feb-21 18:48 34.058663 -118.455845 183 4367ft 75kts
04-Feb-21 18:49 34.033887 -118.456320 181 4464ft 111kts
04-Feb-21 18:50 34.025961 -118.485569 297 4459ft 136kts
04-Feb-21 18:51 34.043870 -118.528354 297 4454ft 147kts
04-Feb-21 18:52 34.062543 -118.573020 297 4134ft 151kts
04-Feb-21 18:53 34.081539 -118.617240 303 3851ft 137kts
04-Feb-21 18:54 34.099914 -118.653184 301 3850ft 117kts
04-Feb-21 18:55 34.116271 -118.685100 301 3851ft 107kts
04-Feb-21 18:56 34.131666 -118.715159 301 3853ft 104kts
04-Feb-21 18:57 34.147062 -118.745221 301 3853ft 105kts
04-Feb-21 18:58 34.169218 -118.753859 30 3865ft 104kts
04-Feb-21 18:59 34.194534 -118.736355 30 3528ft 111kts
04-Feb-21 19:00 34.200788 -118.705206 90 3458ft 92kts
04-Feb-21 19:01 34.200977 -118.674884 89 3467ft 95kts
04-Feb-21 19:02 34.201104 -118.640929 89 3463ft 104kts
04-Feb-21 19:03 34.201224 -118.605718 90 3355ft 101kts
04-Feb-21 19:04 34.201287 -118.573350 89 2949ft 95kts
04-Feb-21 19:05 34.201102 -118.542745 94 2498ft 88kts
04-Feb-21 19:06 34.200390 -118.516173 93 1974ft 84kts
04-Feb-21 19:07 34.197718 -118.490450 39 1110ft 91kts
04-Feb-21 19:08 34.214689 -118.489584 351 804ft 10kts
04-Feb-21 19:09 34.215442 -118.488886 172 804ft 9kts
04-Feb-21 19:10 34.212968 -118.488211 97 804ft 5kts
04-Feb-21 19:11 34.212949 -118.488108 103 804ft 0kts

Navigation Log

Ident Type
Flight plan parsing failed, navigation log unavailable